sensor_id;sensor_type;location;lat;lon;timestamp;pressure;altitude;pressure_sealevel;temperature;humidity
38630;BME280;24384;51.988;4.644;2023-04-24T00:01:39;99982.59;;;8.89;100.00
38630;BME280;24384;51.988;4.644;2023-04-24T00:04:05;99981.81;;;8.87;100.00
38630;BME280;24384;51.988;4.644;2023-04-24T00:06:31;99982.66;;;8.88;100.00
38630;BME280;24384;51.988;4.644;2023-04-24T00:09:00;99985.91;;;8.94;100.00
38630;BME280;24384;51.988;4.644;2023-04-24T00:11:26;99978.44;;;8.84;100.00
38630;BME280;24384;51.988;4.644;2023-04-24T00:13:51;99985.03;;;8.94;100.00
38630;BME280;24384;51.988;4.644;2023-04-24T00:16:16;99984.84;;;8.99;100.00
38630;BME280;24384;51.988;4.644;2023-04-24T00:18:41;99982.47;;;8.92;100.00
38630;BME280;24384;51.988;4.644;2023-04-24T00:21:06;99977.09;;;8.95;100.00
38630;BME280;24384;51.988;4.644;2023-04-24T00:23:32;99985.72;;;8.99;100.00
38630;BME280;24384;51.988;4.644;2023-04-24T00:25:57;99991.84;;;9.00;100.00
38630;BME280;24384;51.988;4.644;2023-04-24T00:28:22;99992.84;;;8.95;100.00
38630;BME280;24384;51.988;4.644;2023-04-24T00:30:48;99988.94;;;9.06;100.00
38630;BME280;24384;51.988;4.644;2023-04-24T00:33:13;99994.22;;;9.06;100.00
38630;BME280;24384;51.988;4.644;2023-04-24T00:35:38;99992.25;;;8.89;100.00
38630;BME280;24384;51.988;4.644;2023-04-24T00:38:03;99985.16;;;8.91;100.00
38630;BME280;24384;51.988;4.644;2023-04-24T00:40:28;99987.84;;;8.89;100.00
38630;BME280;24384;51.988;4.644;2023-04-24T00:42:54;99983.69;;;8.84;100.00
38630;BME280;24384;51.988;4.644;2023-04-24T00:45:19;99992.19;;;8.90;100.00
38630;BME280;24384;51.988;4.644;2023-04-24T00:47:44;99991.47;;;8.87;100.00
38630;BME280;24384;51.988;4.644;2023-04-24T00:50:10;99992.63;;;8.80;100.00
38630;BME280;24384;51.988;4.644;2023-04-24T00:52:36;99991.72;;;8.81;100.00
38630;BME280;24384;51.988;4.644;2023-04-24T00:55:03;99999.09;;;8.71;100.00
38630;BME280;24384;51.988;4.644;2023-04-24T00:57:28;99994.34;;;8.81;100.00
38630;BME280;24384;51.988;4.644;2023-04-24T00:59:53;99991.72;;;8.81;100.00
38630;BME280;24384;51.988;4.644;2023-04-24T01:02:19;99989.25;;;8.76;100.00
38630;BME280;24384;51.988;4.644;2023-04-24T01:04:44;99986.69;;;8.74;100.00
38630;BME280;24384;51.988;4.644;2023-04-24T01:07:09;99990.91;;;8.78;100.00
38630;BME280;24384;51.988;4.644;2023-04-24T01:09:42;99992.69;;;8.78;100.00
38630;BME280;24384;51.988;4.644;2023-04-24T01:12:09;99992.38;;;8.86;100.00
38630;BME280;24384;51.988;4.644;2023-04-24T01:14:34;99989.94;;;8.81;100.00
38630;BME280;24384;51.988;4.644;2023-04-24T01:16:59;99988.97;;;8.84;100.00
38630;BME280;24384;51.988;4.644;2023-04-24T01:19:25;99991.00;;;8.75;100.00
38630;BME280;24384;51.988;4.644;2023-04-24T01:21:50;99988.31;;;8.77;100.00
38630;BME280;24384;51.988;4.644;2023-04-24T01:24:17;99987.34;;;8.80;100.00
38630;BME280;24384;51.988;4.644;2023-04-24T01:26:44;99994.63;;;8.73;100.00
38630;BME280;24384;51.988;4.644;2023-04-24T01:29:09;99996.59;;;8.90;100.00
38630;BME280;24384;51.988;4.644;2023-04-24T01:31:35;99988.09;;;8.83;100.00
38630;BME280;24384;51.988;4.644;2023-04-24T01:34:00;99986.28;;;8.85;100.00
38630;BME280;24384;51.988;4.644;2023-04-24T01:36:25;99987.34;;;8.80;100.00
38630;BME280;24384;51.988;4.644;2023-04-24T01:38:52;99991.72;;;8.81;100.00
38630;BME280;24384;51.988;4.644;2023-04-24T01:41:17;99992.69;;;8.78;100.00
38630;BME280;24384;51.988;4.644;2023-04-24T01:43:42;99992.56;;;8.81;100.00
38630;BME280;24384;51.988;4.644;2023-04-24T01:46:10;99988.31;;;8.77;100.00
38630;BME280;24384;51.988;4.644;2023-04-24T01:48:36;99992.84;;;8.73;100.00
38630;BME280;24384;51.988;4.644;2023-04-24T01:51:01;99986.69;;;8.74;100.00
38630;BME280;24384;51.988;4.644;2023-04-24T01:53:26;99993.81;;;8.71;100.00
38630;BME280;24384;51.988;4.644;2023-04-24T01:55:51;99992.06;;;8.71;100.00
38630;BME280;24384;51.988;4.644;2023-04-24T01:58:17;99987.78;;;8.69;100.00
38630;BME280;24384;51.988;4.644;2023-04-24T02:00:42;99988.44;;;8.74;100.00
38630;BME280;24384;51.988;4.644;2023-04-24T02:03:07;99980.75;;;8.69;100.00
38630;BME280;24384;51.988;4.644;2023-04-24T02:05:32;99992.38;;;8.64;100.00
38630;BME280;24384;51.988;4.644;2023-04-24T02:07:58;99988.31;;;8.55;100.00
38630;BME280;24384;51.988;4.644;2023-04-24T02:10:23;99992.50;;;8.60;100.00
38630;BME280;24384;51.988;4.644;2023-04-24T02:12:50;99987.28;;;8.59;100.00
38630;BME280;24384;51.988;4.644;2023-04-24T02:15:15;99988.25;;;8.56;100.00
38630;BME280;24384;51.988;4.644;2023-04-24T02:17:41;99977.06;;;8.51;100.00
38630;BME280;24384;51.988;4.644;2023-04-24T02:20:07;99990.75;;;8.59;100.00
38630;BME280;24384;51.988;4.644;2023-04-24T02:22:32;99980.84;;;8.66;100.00
38630;BME280;24384;51.988;4.644;2023-04-24T02:24:57;99984.59;;;8.60;100.00
38630;BME280;24384;51.988;4.644;2023-04-24T02:27:22;99992.84;;;8.51;100.00
38630;BME280;24384;51.988;4.644;2023-04-24T02:29:47;99989.56;;;8.68;100.00
38630;BME280;24384;51.988;4.644;2023-04-24T02:32:12;99985.50;;;8.59;100.00
38630;BME280;24384;51.988;4.644;2023-04-24T02:34:40;99990.75;;;8.59;100.00
38630;BME280;24384;51.988;4.644;2023-04-24T02:37:05;99987.72;;;8.70;100.00
38630;BME280;24384;51.988;4.644;2023-04-24T02:39:30;99989.84;;;8.60;100.00
38630;BME280;24384;51.988;4.644;2023-04-24T02:41:55;99988.81;;;8.65;100.00
38630;BME280;24384;51.988;4.644;2023-04-24T02:44:21;99987.28;;;8.59;100.00
38630;BME280;24384;51.988;4.644;2023-04-24T02:46:47;99982.94;;;8.58;100.00
38630;BME280;24384;51.988;4.644;2023-04-24T02:49:12;99991.06;;;8.52;100.00
38630;BME280;24384;51.988;4.644;2023-04-24T02:51:37;99989.91;;;8.59;100.00
38630;BME280;24384;51.988;4.644;2023-04-24T02:54:07;99982.16;;;8.56;100.00
38630;BME280;24384;51.988;4.644;2023-04-24T02:56:32;99983.16;;;8.52;100.00
38630;BME280;24384;51.988;4.644;2023-04-24T02:58:58;99983.16;;;8.52;100.00
38630;BME280;24384;51.988;4.644;2023-04-24T03:01:23;99986.59;;;8.54;100.00
38630;BME280;24384;51.988;4.644;2023-04-24T03:03:48;99989.28;;;8.52;100.00
38630;BME280;24384;51.988;4.644;2023-04-24T03:06:14;99978.22;;;8.42;100.00
38630;BME280;24384;51.988;4.644;2023-04-24T03:08:39;99988.19;;;8.34;100.00
38630;BME280;24384;51.988;4.644;2023-04-24T03:11:04;99984.75;;;8.32;100.00
38630;BME280;24384;51.988;4.644;2023-04-24T03:13:29;99994.19;;;8.38;100.00
38630;BME280;24384;51.988;4.644;2023-04-24T03:15:55;99988.25;;;8.33;100.00
38630;BME280;24384;51.988;4.644;2023-04-24T03:18:20;99987.53;;;8.28;100.00
38630;BME280;24384;51.988;4.644;2023-04-24T03:20:45;99992.91;;;8.24;100.00
38630;BME280;24384;51.988;4.644;2023-04-24T03:23:11;99992.13;;;8.22;100.00
38630;BME280;24384;51.988;4.644;2023-04-24T03:25:36;99988.81;;;8.17;100.00
38630;BME280;24384;51.988;4.644;2023-04-24T03:28:01;99997.31;;;8.24;100.00
38630;BME280;24384;51.988;4.644;2023-04-24T03:30:26;99997.38;;;8.22;100.00
38630;BME280;24384;51.988;4.644;2023-04-24T03:32:51;99992.00;;;8.25;100.00
38630;BME280;24384;51.988;4.644;2023-04-24T03:35:17;99999.78;;;8.29;100.00
38630;BME280;24384;51.988;4.644;2023-04-24T03:37:42;100000.78;;;8.24;100.00
38630;BME280;24384;51.988;4.644;2023-04-24T03:40:07;100002.50;;;8.25;100.00
38630;BME280;24384;51.988;4.644;2023-04-24T03:42:33;100007.72;;;8.27;100.00
38630;BME280;24384;51.988;4.644;2023-04-24T03:44:58;100002.00;;;8.39;100.00
38630;BME280;24384;51.988;4.644;2023-04-24T03:47:23;100009.81;;;8.41;100.00
38630;BME280;24384;51.988;4.644;2023-04-24T03:49:48;100010.31;;;8.52;100.00
38630;BME280;24384;51.988;4.644;2023-04-24T03:52:13;100010.31;;;8.52;100.00
38630;BME280;24384;51.988;4.644;2023-04-24T03:54:38;100005.50;;;8.64;100.00
38630;BME280;24384;51.988;4.644;2023-04-24T03:57:04;100002.13;;;8.60;100.00
38630;BME280;24384;51.988;4.644;2023-04-24T03:59:30;100010.72;;;8.65;100.00
38630;BME280;24384;51.988;4.644;2023-04-24T04:01:55;100006.47;;;8.61;100.00
38630;BME280;24384;51.988;4.644;2023-04-24T04:04:21;100004.50;;;8.66;100.00
38630;BME280;24384;51.988;4.644;2023-04-24T04:06:46;100002.06;;;8.62;100.00
38630;BME280;24384;51.988;4.644;2023-04-24T04:09:12;100012.53;;;8.63;100.00
38630;BME280;24384;51.988;4.644;2023-04-24T04:11:37;100015.16;;;8.63;100.00
38630;BME280;24384;51.988;4.644;2023-04-24T04:14:02;100010.31;;;8.52;100.00
38630;BME280;24384;51.988;4.644;2023-04-24T04:16:27;100020.94;;;8.49;100.00
38630;BME280;24384;51.988;4.644;2023-04-24T04:18:53;100021.41;;;8.60;100.00
38630;BME280;24384;51.988;4.644;2023-04-24T04:21:18;100026.06;;;8.52;100.00
38630;BME280;24384;51.988;4.644;2023-04-24T04:23:44;100022.03;;;8.44;100.00
38630;BME280;24384;51.988;4.644;2023-04-24T04:26:10;100027.00;;;8.51;100.00
38630;BME280;24384;51.988;4.644;2023-04-24T04:28:36;100036.63;;;8.51;100.00
38630;BME280;24384;51.988;4.644;2023-04-24T04:31:02;100040.44;;;8.44;100.00
38630;BME280;24384;51.988;4.644;2023-04-24T04:33:28;100036.81;;;8.46;100.00
38630;BME280;24384;51.988;4.644;2023-04-24T04:35:53;100042.19;;;8.41;100.00
38630;BME280;24384;51.988;4.644;2023-04-24T04:38:18;100043.69;;;8.50;100.00
38630;BME280;24384;51.988;4.644;2023-04-24T04:40:44;100053.00;;;8.59;100.00
38630;BME280;24384;51.988;4.644;2023-04-24T04:43:09;100054.41;;;8.68;100.00
38630;BME280;24384;51.988;4.644;2023-04-24T04:45:36;100063.72;;;8.76;100.00
38630;BME280;24384;51.988;4.644;2023-04-24T04:48:02;100065.75;;;8.70;100.00
38630;BME280;24384;51.988;4.644;2023-04-24T04:50:28;100063.28;;;8.65;100.00
38630;BME280;24384;51.988;4.644;2023-04-24T04:52:53;100078.78;;;8.73;100.00
38630;BME280;24384;51.988;4.644;2023-04-24T04:55:18;100075.66;;;8.62;100.00
38630;BME280;24384;51.988;4.644;2023-04-24T04:57:46;100084.38;;;8.64;100.00
38630;BME280;24384;51.988;4.644;2023-04-24T05:00:12;100088.13;;;8.56;100.00
38630;BME280;24384;51.988;4.644;2023-04-24T05:02:40;100095.72;;;8.64;100.00
38630;BME280;24384;51.988;4.644;2023-04-24T05:05:06;100099.59;;;8.54;100.00
38630;BME280;24384;51.988;4.644;2023-04-24T05:07:31;100097.19;;;8.48;100.00
38630;BME280;24384;51.988;4.644;2023-04-24T05:09:56;100110.56;;;8.40;100.00
38630;BME280;24384;51.988;4.644;2023-04-24T05:12:21;100117.47;;;8.44;100.00
38630;BME280;24384;51.988;4.644;2023-04-24T05:14:46;100113.25;;;8.38;100.00
38630;BME280;24384;51.988;4.644;2023-04-24T05:17:12;100137.94;;;8.34;100.00
38630;BME280;24384;51.988;4.644;2023-04-24T05:19:37;100144.16;;;8.32;100.00
38630;BME280;24384;51.988;4.644;2023-04-24T05:22:03;100150.41;;;8.28;100.00
38630;BME280;24384;51.988;4.644;2023-04-24T05:24:31;100145.31;;;8.23;100.00
38630;BME280;24384;51.988;4.644;2023-04-24T05:26:56;100179.19;;;8.05;100.00
38630;BME280;24384;51.988;4.644;2023-04-24T05:29:23;100180.81;;;8.10;100.00
38630;BME280;24384;51.988;4.644;2023-04-24T05:31:48;100182.50;;;8.11;100.00
38630;BME280;24384;51.988;4.644;2023-04-24T05:34:14;100200.94;;;8.09;100.00
38630;BME280;24384;51.988;4.644;2023-04-24T05:36:40;100202.03;;;8.03;100.00
38630;BME280;24384;51.988;4.644;2023-04-24T05:39:06;100208.03;;;8.07;100.00
38630;BME280;24384;51.988;4.644;2023-04-24T05:41:31;100216.81;;;8.06;100.00
38630;BME280;24384;51.988;4.644;2023-04-24T05:43:56;100231.06;;;7.99;100.00
38630;BME280;24384;51.988;4.644;2023-04-24T05:46:21;100231.81;;;8.02;100.00
38630;BME280;24384;51.988;4.644;2023-04-24T05:48:46;100247.63;;;8.01;100.00
38630;BME280;24384;51.988;4.644;2023-04-24T05:51:12;100249.53;;;7.96;100.00
38630;BME280;24384;51.988;4.644;2023-04-24T05:53:37;100260.09;;;7.94;100.00
38630;BME280;24384;51.988;4.644;2023-04-24T05:56:02;100266.94;;;7.98;100.00
38630;BME280;24384;51.988;4.644;2023-04-24T05:58:27;100274.97;;;7.94;100.00
38630;BME280;24384;51.988;4.644;2023-04-24T06:00:52;100281.00;;;7.97;100.00
38630;BME280;24384;51.988;4.644;2023-04-24T06:03:18;100278.28;;;8.00;100.00
38630;BME280;24384;51.988;4.644;2023-04-24T06:05:43;100287.66;;;8.07;100.00
38630;BME280;24384;51.988;4.644;2023-04-24T06:08:08;100297.56;;;7.99;100.00
38630;BME280;24384;51.988;4.644;2023-04-24T06:10:34;100297.31;;;8.07;100.00
38630;BME280;24384;51.988;4.644;2023-04-24T06:13:01;100306.06;;;8.07;100.00
38630;BME280;24384;51.988;4.644;2023-04-24T06:15:29;100316.84;;;7.98;100.00
38630;BME280;24384;51.988;4.644;2023-04-24T06:17:55;100317.53;;;8.05;100.00
38630;BME280;24384;51.988;4.644;2023-04-24T06:20:21;100336.09;;;7.99;100.00
38630;BME280;24384;51.988;4.644;2023-04-24T06:22:46;100336.34;;;7.91;100.00
38630;BME280;24384;51.988;4.644;2023-04-24T06:25:11;100345.81;;;7.95;100.00
38630;BME280;24384;51.988;4.644;2023-04-24T06:27:36;100345.63;;;8.01;100.00
38630;BME280;24384;51.988;4.644;2023-04-24T06:30:02;100344.97;;;7.95;100.00
38630;BME280;24384;51.988;4.644;2023-04-24T06:32:27;100362.47;;;7.96;100.00
38630;BME280;24384;51.988;4.644;2023-04-24T06:34:55;100371.09;;;7.99;100.00
38630;BME280;24384;51.988;4.644;2023-04-24T06:37:20;100379.81;;;8.00;100.00
38630;BME280;24384;51.988;4.644;2023-04-24T06:39:46;100386.66;;;8.05;100.00
38630;BME280;24384;51.988;4.644;2023-04-24T06:42:11;100389.56;;;7.96;100.00
38630;BME280;24384;51.988;4.644;2023-04-24T06:44:38;100391.13;;;8.03;100.00
38630;BME280;24384;51.988;4.644;2023-04-24T06:47:08;100404.47;;;7.96;100.00
38630;BME280;24384;51.988;4.644;2023-04-24T06:49:34;100402.69;;;7.96;100.00
38630;BME280;24384;51.988;4.644;2023-04-24T06:51:59;100407.06;;;7.97;99.57
38630;BME280;24384;51.988;4.644;2023-04-24T06:54:24;100418.22;;;8.04;100.00
38630;BME280;24384;51.988;4.644;2023-04-24T06:56:49;100426.81;;;8.09;99.07
38630;BME280;24384;51.988;4.644;2023-04-24T06:59:16;100428.09;;;7.96;99.30
38630;BME280;24384;51.988;4.644;2023-04-24T07:01:41;100438.69;;;7.93;99.16
38630;BME280;24384;51.988;4.644;2023-04-24T07:04:06;100432.44;;;7.97;99.23
38630;BME280;24384;51.988;4.644;2023-04-24T07:06:31;100442.22;;;7.92;99.05
38630;BME280;24384;51.988;4.644;2023-04-24T07:08:57;100441.25;;;7.96;98.81
38630;BME280;24384;51.988;4.644;2023-04-24T07:11:23;100450.84;;;7.95;98.26
38630;BME280;24384;51.988;4.644;2023-04-24T07:13:48;100463.31;;;7.88;99.60
38630;BME280;24384;51.988;4.644;2023-04-24T07:16:13;100466.78;;;7.89;99.64
38630;BME280;24384;51.988;4.644;2023-04-24T07:18:39;100467.81;;;7.85;100.00
38630;BME280;24384;51.988;4.644;2023-04-24T07:21:04;100485.28;;;7.84;100.00
38630;BME280;24384;51.988;4.644;2023-04-24T07:23:30;100483.50;;;7.86;100.00
38630;BME280;24384;51.988;4.644;2023-04-24T07:25:56;100487.59;;;7.97;100.00
38630;BME280;24384;51.988;4.644;2023-04-24T07:28:21;100495.34;;;8.01;100.00
38630;BME280;24384;51.988;4.644;2023-04-24T07:30:46;100496.22;;;8.02;99.93
38630;BME280;24384;51.988;4.644;2023-04-24T07:33:11;100496.94;;;8.07;98.83
38630;BME280;24384;51.988;4.644;2023-04-24T07:35:38;100502.09;;;8.10;98.52
38630;BME280;24384;51.988;4.644;2023-04-24T07:38:03;100497.47;;;8.18;96.80
38630;BME280;24384;51.988;4.644;2023-04-24T07:40:28;100509.59;;;8.24;96.26
38630;BME280;24384;51.988;4.644;2023-04-24T07:42:53;100521.84;;;8.25;95.55
38630;BME280;24384;51.988;4.644;2023-04-24T07:45:18;100529.41;;;8.36;94.09
38630;BME280;24384;51.988;4.644;2023-04-24T07:47:44;100528.63;;;8.32;92.23
38630;BME280;24384;51.988;4.644;2023-04-24T07:50:10;100531.91;;;8.40;92.42
38630;BME280;24384;51.988;4.644;2023-04-24T07:52:35;100526.03;;;8.31;91.82
38630;BME280;24384;51.988;4.644;2023-04-24T07:55:01;100541.84;;;8.29;92.25
38630;BME280;24384;51.988;4.644;2023-04-24T07:57:27;100549.53;;;8.35;92.07
38630;BME280;24384;51.988;4.644;2023-04-24T07:59:52;100548.78;;;8.32;92.24
38630;BME280;24384;51.988;4.644;2023-04-24T08:02:17;100554.94;;;8.31;92.25
38630;BME280;24384;51.988;4.644;2023-04-24T08:04:43;100554.09;;;8.30;92.90
38630;BME280;24384;51.988;4.644;2023-04-24T08:07:08;100557.94;;;8.17;91.88
38630;BME280;24384;51.988;4.644;2023-04-24T08:09:33;100577.13;;;8.20;91.46
38630;BME280;24384;51.988;4.644;2023-04-24T08:11:58;100579.00;;;8.15;91.80
38630;BME280;24384;51.988;4.644;2023-04-24T08:14:23;100581.47;;;8.21;91.17
38630;BME280;24384;51.988;4.644;2023-04-24T08:16:49;100589.50;;;8.15;88.87
38630;BME280;24384;51.988;4.644;2023-04-24T08:19:14;100588.19;;;8.32;89.60
38630;BME280;24384;51.988;4.644;2023-04-24T08:21:39;100589.88;;;8.34;87.78
38630;BME280;24384;51.988;4.644;2023-04-24T08:24:04;100602.44;;;8.23;85.65
38630;BME280;24384;51.988;4.644;2023-04-24T08:26:32;100602.47;;;8.21;86.64
38630;BME280;24384;51.988;4.644;2023-04-24T08:28:57;100606.75;;;8.25;86.49
38630;BME280;24384;51.988;4.644;2023-04-24T08:31:22;100620.63;;;8.31;87.18
38630;BME280;24384;51.988;4.644;2023-04-24T08:33:49;100613.41;;;8.39;86.24
38630;BME280;24384;51.988;4.644;2023-04-24T08:36:15;100628.13;;;8.46;87.02
38630;BME280;24384;51.988;4.644;2023-04-24T08:38:40;100636.66;;;8.54;84.13
38630;BME280;24384;51.988;4.644;2023-04-24T08:41:05;100637.13;;;8.69;83.27
38630;BME280;24384;51.988;4.644;2023-04-24T08:43:32;100633.97;;;8.87;84.21
38630;BME280;24384;51.988;4.644;2023-04-24T08:45:58;100644.84;;;9.05;83.14
38630;BME280;24384;51.988;4.644;2023-04-24T08:48:24;100635.31;;;9.02;81.07
38630;BME280;24384;51.988;4.644;2023-04-24T08:50:50;100636.88;;;8.78;80.76
38630;BME280;24384;51.988;4.644;2023-04-24T08:53:16;100646.84;;;8.67;82.21
38630;BME280;24384;51.988;4.644;2023-04-24T08:55:43;100641.41;;;8.40;81.17
38630;BME280;24384;51.988;4.644;2023-04-24T08:58:08;100664.03;;;8.47;84.63
38630;BME280;24384;51.988;4.644;2023-04-24T09:00:33;100662.19;;;8.49;83.23
38630;BME280;24384;51.988;4.644;2023-04-24T09:03:00;100664.94;;;8.45;82.13
38630;BME280;24384;51.988;4.644;2023-04-24T09:05:26;100663.25;;;8.42;81.92
38630;BME280;24384;51.988;4.644;2023-04-24T09:07:56;100656.59;;;8.62;81.48
38630;BME280;24384;51.988;4.644;2023-04-24T09:10:22;100661.78;;;8.65;82.09
38630;BME280;24384;51.988;4.644;2023-04-24T09:12:48;100659.16;;;8.65;82.75
38630;BME280;24384;51.988;4.644;2023-04-24T09:15:14;100662.97;;;8.54;82.90
38630;BME280;24384;51.988;4.644;2023-04-24T09:17:40;100668.69;;;8.69;83.51
38630;BME280;24384;51.988;4.644;2023-04-24T09:20:05;100669.03;;;8.56;82.11
38630;BME280;24384;51.988;4.644;2023-04-24T09:22:31;100681.03;;;8.67;81.83
38630;BME280;24384;51.988;4.644;2023-04-24T09:25:01;100694.09;;;8.70;82.52
38630;BME280;24384;51.988;4.644;2023-04-24T09:27:28;100693.44;;;8.60;83.20
38630;BME280;24384;51.988;4.644;2023-04-24T09:29:54;100701.09;;;8.69;83.38
38630;BME280;24384;51.988;4.644;2023-04-24T09:32:21;100705.00;;;8.87;81.97
38630;BME280;24384;51.988;4.644;2023-04-24T09:34:47;100705.19;;;8.80;82.03
38630;BME280;24384;51.988;4.644;2023-04-24T09:37:14;100704.63;;;9.00;82.33
38630;BME280;24384;51.988;4.644;2023-04-24T09:39:43;100706.91;;;9.12;81.96
38630;BME280;24384;51.988;4.644;2023-04-24T09:42:08;100701.88;;;9.04;83.67
38630;BME280;24384;51.988;4.644;2023-04-24T09:44:34;100701.44;;;9.20;82.90
38630;BME280;24384;51.988;4.644;2023-04-24T09:46:59;100705.00;;;9.47;82.74
38630;BME280;24384;51.988;4.644;2023-04-24T09:49:25;100707.78;;;9.42;78.97
38630;BME280;24384;51.988;4.644;2023-04-24T09:51:51;100706.59;;;9.23;79.03
38630;BME280;24384;51.988;4.644;2023-04-24T09:54:17;100712.75;;;9.22;82.20
38630;BME280;24384;51.988;4.644;2023-04-24T09:56:44;100724.38;;;9.44;79.78
38630;BME280;24384;51.988;4.644;2023-04-24T09:59:10;100722.50;;;9.48;79.31
38630;BME280;24384;51.988;4.644;2023-04-24T10:01:35;100726.03;;;9.48;78.00
38630;BME280;24384;51.988;4.644;2023-04-24T10:04:01;100726.34;;;9.38;75.84
38630;BME280;24384;51.988;4.644;2023-04-24T10:06:31;100733.00;;;9.49;75.57
38630;BME280;24384;51.988;4.644;2023-04-24T10:08:56;100738.75;;;9.32;77.68
38630;BME280;24384;51.988;4.644;2023-04-24T10:11:26;100752.50;;;9.12;78.50
38630;BME280;24384;51.988;4.644;2023-04-24T10:13:51;100765.78;;;9.08;80.26
38630;BME280;24384;51.988;4.644;2023-04-24T10:16:17;100761.75;;;8.96;83.73
38630;BME280;24384;51.988;4.644;2023-04-24T10:18:42;100764.50;;;8.91;83.91
38630;BME280;24384;51.988;4.644;2023-04-24T10:21:08;100771.31;;;8.66;85.07
38630;BME280;24384;51.988;4.644;2023-04-24T10:23:33;100772.16;;;8.66;86.16
38630;BME280;24384;51.988;4.644;2023-04-24T10:25:58;100782.69;;;8.66;87.31
38630;BME280;24384;51.988;4.644;2023-04-24T10:28:25;100779.97;;;8.69;85.91
38630;BME280;24384;51.988;4.644;2023-04-24T10:30:51;100771.88;;;8.77;84.99
38630;BME280;24384;51.988;4.644;2023-04-24T10:33:19;100766.13;;;8.95;83.44
38630;BME280;24384;51.988;4.644;2023-04-24T10:35:46;100763.19;;;9.06;81.47
38630;BME280;24384;51.988;4.644;2023-04-24T10:38:16;100762.94;;;9.16;81.75
38630;BME280;24384;51.988;4.644;2023-04-24T10:40:41;100775.28;;;9.13;81.29
38630;BME280;24384;51.988;4.644;2023-04-24T10:43:07;100772.25;;;9.27;79.42
38630;BME280;24384;51.988;4.644;2023-04-24T10:45:36;100770.03;;;9.43;78.00
38630;BME280;24384;51.988;4.644;2023-04-24T10:48:02;100772.28;;;9.56;78.47
38630;BME280;24384;51.988;4.644;2023-04-24T10:50:28;100775.81;;;9.84;79.65
38630;BME280;24384;51.988;4.644;2023-04-24T10:53:04;100779.47;;;10.09;77.81
38630;BME280;24384;51.988;4.644;2023-04-24T10:55:40;100786.63;;;10.33;76.65
38630;BME280;24384;51.988;4.644;2023-04-24T10:58:05;100779.31;;;10.13;77.22
38630;BME280;24384;51.988;4.644;2023-04-24T11:00:30;100793.59;;;10.06;78.14
38630;BME280;24384;51.988;4.644;2023-04-24T11:02:56;100798.78;;;9.81;78.24
38630;BME280;24384;51.988;4.644;2023-04-24T11:05:22;100800.75;;;9.73;79.10
38630;BME280;24384;51.988;4.644;2023-04-24T11:10:31;100817.38;;;9.45;82.17
38630;BME280;24384;51.988;4.644;2023-04-24T11:12:56;100820.03;;;9.43;83.73
38630;BME280;24384;51.988;4.644;2023-04-24T11:15:21;100814.97;;;9.97;83.04
38630;BME280;24384;51.988;4.644;2023-04-24T11:17:47;100813.53;;;10.15;81.00
38630;BME280;24384;51.988;4.644;2023-04-24T11:20:16;100813.75;;;10.62;78.58
38630;BME280;24384;51.988;4.644;2023-04-24T11:22:42;100817.78;;;10.74;75.30
38630;BME280;24384;51.988;4.644;2023-04-24T11:25:07;100811.81;;;10.67;72.00
38630;BME280;24384;51.988;4.644;2023-04-24T11:27:40;100826.28;;;11.07;73.52
38630;BME280;24384;51.988;4.644;2023-04-24T11:30:05;100833.63;;;11.72;69.06
38630;BME280;24384;51.988;4.644;2023-04-24T11:32:40;100821.78;;;12.06;69.44
38630;BME280;24384;51.988;4.644;2023-04-24T11:35:22;100832.19;;;12.10;70.57
38630;BME280;24384;51.988;4.644;2023-04-24T11:37:53;100835.13;;;11.55;68.44
38630;BME280;24384;51.988;4.644;2023-04-24T11:40:19;100834.41;;;11.74;70.00
38630;BME280;24384;51.988;4.644;2023-04-24T11:42:48;100843.00;;;11.80;68.24
38630;BME280;24384;51.988;4.644;2023-04-24T11:45:18;100845.97;;;11.47;67.63
38630;BME280;24384;51.988;4.644;2023-04-24T11:47:45;100850.03;;;11.33;69.12
38630;BME280;24384;51.988;4.644;2023-04-24T11:50:11;100855.63;;;11.49;69.27
38630;BME280;24384;51.988;4.644;2023-04-24T11:52:40;100859.69;;;11.81;67.23
38630;BME280;24384;51.988;4.644;2023-04-24T11:55:47;100845.75;;;12.01;66.45
38630;BME280;24384;51.988;4.644;2023-04-24T11:57:55;100855.09;;;11.86;67.79
38630;BME280;24384;51.988;4.644;2023-04-24T12:00:30;100862.81;;;11.45;66.55
38630;BME280;24384;51.988;4.644;2023-04-24T12:05:33;100871.84;;;11.38;67.73
38630;BME280;24384;51.988;4.644;2023-04-24T12:07:59;100868.19;;;11.17;68.06
38630;BME280;24384;51.988;4.644;2023-04-24T12:10:25;100872.19;;;11.28;68.32
38630;BME280;24384;51.988;4.644;2023-04-24T12:12:51;100870.72;;;11.45;67.19
38630;BME280;24384;51.988;4.644;2023-04-24T12:15:18;100890.72;;;11.76;68.53
38630;BME280;24384;51.988;4.644;2023-04-24T12:17:44;100890.06;;;11.69;67.97
38630;BME280;24384;51.988;4.644;2023-04-24T12:20:09;100895.72;;;11.83;67.25
38630;BME280;24384;51.988;4.644;2023-04-24T12:25:20;100897.91;;;10.97;70.35
38630;BME280;24384;51.988;4.644;2023-04-24T12:27:45;100904.28;;;10.63;73.63
38630;BME280;24384;51.988;4.644;2023-04-24T12:30:12;100904.69;;;10.20;73.55
38630;BME280;24384;51.988;4.644;2023-04-24T12:33:20;100916.19;;;9.88;73.38
38630;BME280;24384;51.988;4.644;2023-04-24T12:35:30;100912.53;;;9.94;76.12
38630;BME280;24384;51.988;4.644;2023-04-24T12:38:04;100909.94;;;9.92;75.93
38630;BME280;24384;51.988;4.644;2023-04-24T12:40:30;100906.53;;;9.57;77.97
38630;BME280;24384;51.988;4.644;2023-04-24T12:42:56;100911.25;;;9.77;77.31
38630;BME280;24384;51.988;4.644;2023-04-24T12:45:21;100910.56;;;10.00;76.15
38630;BME280;24384;51.988;4.644;2023-04-24T12:47:48;100896.72;;;10.80;72.72
38630;BME280;24384;51.988;4.644;2023-04-24T12:50:14;100906.31;;;10.81;75.28
38630;BME280;24384;51.988;4.644;2023-04-24T12:52:40;100914.25;;;11.08;73.41
38630;BME280;24384;51.988;4.644;2023-04-24T12:55:06;100915.47;;;11.50;73.22
38630;BME280;24384;51.988;4.644;2023-04-24T12:57:33;100915.81;;;11.88;69.60